sensor_id;sensor_type;location;lat;lon;timestamp;pressure;altitude;pressure_sealevel;temperature;humidity
9474;BME280;8865;47.636;7.692;2024-01-07T00:02:14;97599.34;;;5.85;100.00
9474;BME280;8865;47.636;7.692;2024-01-07T00:04:40;97596.63;;;5.87;100.00
9474;BME280;8865;47.636;7.692;2024-01-07T00:07:06;97600.06;;;5.76;100.00
9474;BME280;8865;47.636;7.692;2024-01-07T00:09:32;97597.31;;;5.66;100.00
9474;BME280;8865;47.636;7.692;2024-01-07T00:11:58;97597.22;;;5.68;100.00
9474;BME280;8865;47.636;7.692;2024-01-07T00:14:24;97600.53;;;5.70;100.00
9474;BME280;8865;47.636;7.692;2024-01-07T00:16:50;97601.00;;;5.75;100.00
9474;BME280;8865;47.636;7.692;2024-01-07T00:19:16;97601.34;;;5.82;100.00
9474;BME280;8865;47.636;7.692;2024-01-07T00:21:43;97592.63;;;5.71;100.00
9474;BME280;8865;47.636;7.692;2024-01-07T00:24:09;97595.69;;;5.77;100.00
9474;BME280;8865;47.636;7.692;2024-01-07T00:26:35;97598.75;;;5.82;100.00
9474;BME280;8865;47.636;7.692;2024-01-07T00:29:01;97601.69;;;5.77;100.00
9474;BME280;8865;47.636;7.692;2024-01-07T00:31:28;97599.81;;;5.68;100.00
9474;BME280;8865;47.636;7.692;2024-01-07T00:33:54;97599.00;;;5.67;100.00
9474;BME280;8865;47.636;7.692;2024-01-07T00:36:20;97597.31;;;5.66;100.00
9474;BME280;8865;47.636;7.692;2024-01-07T00:38:46;97600.63;;;5.57;100.00
9474;BME280;8865;47.636;7.692;2024-01-07T00:41:12;97599.31;;;5.40;100.00
9474;BME280;8865;47.636;7.692;2024-01-07T00:43:38;97598.72;;;5.36;100.00
9474;BME280;8865;47.636;7.692;2024-01-07T00:46:04;97604.38;;;5.42;100.00
9474;BME280;8865;47.636;7.692;2024-01-07T00:48:31;97598.38;;;5.41;100.00
9474;BME280;8865;47.636;7.692;2024-01-07T00:50:57;97599.88;;;5.32;100.00
9474;BME280;8865;47.636;7.692;2024-01-07T00:53:23;97597.28;;;5.32;100.00
9474;BME280;8865;47.636;7.692;2024-01-07T00:55:49;97605.31;;;5.29;100.00
9474;BME280;8865;47.636;7.692;2024-01-07T00:58:15;97602.59;;;5.19;100.00
9474;BME280;8865;47.636;7.692;2024-01-07T01:00:41;97599.25;;;5.17;100.00
9474;BME280;8865;47.636;7.692;2024-01-07T01:03:07;97604.34;;;5.19;100.00
9474;BME280;8865;47.636;7.692;2024-01-07T01:05:33;97609.06;;;5.14;100.00
9474;BME280;8865;47.636;7.692;2024-01-07T01:07:59;97604.22;;;5.21;100.00
9474;BME280;8865;47.636;7.692;2024-01-07T01:10:26;97607.09;;;5.29;100.00
9474;BME280;8865;47.636;7.692;2024-01-07T01:12:52;97606.53;;;5.36;100.00
9474;BME280;8865;47.636;7.692;2024-01-07T01:15:20;97609.94;;;5.37;100.00
9474;BME280;8865;47.636;7.692;2024-01-07T01:17:46;97606.28;;;5.40;100.00
9474;BME280;8865;47.636;7.692;2024-01-07T01:20:12;97607.22;;;5.39;100.00
9474;BME280;8865;47.636;7.692;2024-01-07T01:22:39;97610.78;;;5.38;100.00
9474;BME280;8865;47.636;7.692;2024-01-07T01:25:05;97609.81;;;5.39;100.00
9474;BME280;8865;47.636;7.692;2024-01-07T01:27:31;97614.88;;;5.40;100.00
9474;BME280;8865;47.636;7.692;2024-01-07T01:29:57;97612.19;;;5.42;100.00
9474;BME280;8865;47.636;7.692;2024-01-07T01:32:23;97615.47;;;5.32;100.00
9474;BME280;8865;47.636;7.692;2024-01-07T01:34:49;97608.75;;;5.30;100.00
9474;BME280;8865;47.636;7.692;2024-01-07T01:37:16;97610.63;;;5.28;100.00
9474;BME280;8865;47.636;7.692;2024-01-07T01:39:42;97609.81;;;5.27;100.00
9474;BME280;8865;47.636;7.692;2024-01-07T01:42:08;97612.50;;;5.26;100.00
9474;BME280;8865;47.636;7.692;2024-01-07T01:44:34;97609.56;;;5.30;100.00
9474;BME280;8865;47.636;7.692;2024-01-07T01:47:00;97608.03;;;5.28;100.00
9474;BME280;8865;47.636;7.692;2024-01-07T01:49:27;97609.00;;;5.27;100.00
9474;BME280;8865;47.636;7.692;2024-01-07T01:51:53;97612.16;;;5.30;100.00
9474;BME280;8865;47.636;7.692;2024-01-07T01:54:20;97610.66;;;5.39;100.00
9474;BME280;8865;47.636;7.692;2024-01-07T01:56:48;97615.00;;;5.39;100.00
9474;BME280;8865;47.636;7.692;2024-01-07T01:59:14;97615.84;;;5.39;100.00
9474;BME280;8865;47.636;7.692;2024-01-07T02:01:41;97607.72;;;5.44;100.00
9474;BME280;8865;47.636;7.692;2024-01-07T02:04:08;97616.09;;;5.47;100.00
9474;BME280;8865;47.636;7.692;2024-01-07T02:06:35;97616.09;;;5.47;100.00
9474;BME280;8865;47.636;7.692;2024-01-07T02:09:02;97613.03;;;5.42;100.00
9474;BME280;8865;47.636;7.692;2024-01-07T02:11:28;97624.56;;;5.38;100.00
9474;BME280;8865;47.636;7.692;2024-01-07T02:13:54;97623.53;;;5.41;100.00
9474;BME280;8865;47.636;7.692;2024-01-07T02:16:20;97615.50;;;5.44;100.00
9474;BME280;8865;47.636;7.692;2024-01-07T02:18:46;97621.88;;;5.51;100.00
9474;BME280;8865;47.636;7.692;2024-01-07T02:21:15;97618.47;;;5.50;100.00
9474;BME280;8865;47.636;7.692;2024-01-07T02:23:41;97616.91;;;5.48;100.00
9474;BME280;8865;47.636;7.692;2024-01-07T02:26:07;97621.75;;;5.41;100.00
9474;BME280;8865;47.636;7.692;2024-01-07T02:28:34;97625.91;;;5.44;100.00
9474;BME280;8865;47.636;7.692;2024-01-07T02:31:00;97621.75;;;5.41;100.00
9474;BME280;8865;47.636;7.692;2024-01-07T02:33:26;97626.47;;;5.47;100.00
9474;BME280;8865;47.636;7.692;2024-01-07T02:35:52;97622.38;;;5.56;100.00
9474;BME280;8865;47.636;7.692;2024-01-07T02:38:18;97622.84;;;5.61;100.00
9474;BME280;8865;47.636;7.692;2024-01-07T02:40:44;97632.53;;;5.59;100.00
9474;BME280;8865;47.636;7.692;2024-01-07T02:43:10;97635.81;;;5.61;100.00
9474;BME280;8865;47.636;7.692;2024-01-07T02:45:36;97629.81;;;5.61;100.00
9474;BME280;8865;47.636;7.692;2024-01-07T02:48:03;97635.22;;;5.46;100.00
9474;BME280;8865;47.636;7.692;2024-01-07T02:50:29;97636.97;;;5.46;100.00
9474;BME280;8865;47.636;7.692;2024-01-07T02:52:55;97632.72;;;5.45;100.00
9474;BME280;8865;47.636;7.692;2024-01-07T02:55:21;97640.28;;;5.48;100.00
9474;BME280;8865;47.636;7.692;2024-01-07T02:57:47;97633.19;;;5.39;100.00
9474;BME280;8865;47.636;7.692;2024-01-07T03:00:13;97628.94;;;5.38;100.00
9474;BME280;8865;47.636;7.692;2024-01-07T03:02:39;97628.56;;;5.31;100.00
9474;BME280;8865;47.636;7.692;2024-01-07T03:05:06;97635.44;;;5.32;100.00
9474;BME280;8865;47.636;7.692;2024-01-07T03:07:32;97640.72;;;5.30;100.00
9474;BME280;8865;47.636;7.692;2024-01-07T03:09:58;97638.25;;;5.29;100.00
9474;BME280;8865;47.636;7.692;2024-01-07T03:12:24;97636.97;;;5.34;100.00
9474;BME280;8865;47.636;7.692;2024-01-07T03:14:51;97631.31;;;5.41;100.00
9474;BME280;8865;47.636;7.692;2024-01-07T03:17:17;97633.81;;;5.42;100.00
9474;BME280;8865;47.636;7.692;2024-01-07T03:19:43;97637.44;;;5.40;100.00
9474;BME280;8865;47.636;7.692;2024-01-07T03:22:09;97637.34;;;5.41;100.00
9474;BME280;8865;47.636;7.692;2024-01-07T03:24:35;97639.13;;;5.41;100.00
9474;BME280;8865;47.636;7.692;2024-01-07T03:27:01;97639.56;;;5.34;100.00
9474;BME280;8865;47.636;7.692;2024-01-07T03:29:27;97634.84;;;5.40;100.00
9474;BME280;8865;47.636;7.692;2024-01-07T03:31:53;97633.41;;;5.35;100.00
9474;BME280;8865;47.636;7.692;2024-01-07T03:34:19;97637.56;;;5.38;100.00
9474;BME280;8865;47.636;7.692;2024-01-07T03:36:45;97645.00;;;5.31;100.00
9474;BME280;8865;47.636;7.692;2024-01-07T03:39:11;97642.41;;;5.31;100.00
9474;BME280;8865;47.636;7.692;2024-01-07T03:41:38;97649.53;;;5.16;100.00
9474;BME280;8865;47.636;7.692;2024-01-07T03:44:04;97640.66;;;5.08;100.00
9474;BME280;8865;47.636;7.692;2024-01-07T03:46:30;97637.81;;;4.99;100.00
9474;BME280;8865;47.636;7.692;2024-01-07T03:48:56;97645.38;;;5.03;100.00
9474;BME280;8865;47.636;7.692;2024-01-07T03:51:22;97642.53;;;5.06;100.00
9474;BME280;8865;47.636;7.692;2024-01-07T03:53:48;97650.00;;;5.10;100.00
9474;BME280;8865;47.636;7.692;2024-01-07T03:56:14;97647.19;;;5.13;100.00
9474;BME280;8865;47.636;7.692;2024-01-07T03:58:40;97648.09;;;5.12;100.00
9474;BME280;8865;47.636;7.692;2024-01-07T04:01:06;97649.25;;;5.08;100.00
9474;BME280;8865;47.636;7.692;2024-01-07T04:03:32;97646.84;;;5.18;100.00
9474;BME280;8865;47.636;7.692;2024-01-07T04:05:58;97652.03;;;5.18;100.00
9474;BME280;8865;47.636;7.692;2024-01-07T04:08:25;97651.81;;;5.21;100.00
9474;BME280;8865;47.636;7.692;2024-01-07T04:10:51;97649.72;;;5.02;100.00
9474;BME280;8865;47.636;7.692;2024-01-07T04:13:17;97658.13;;;5.06;100.00
9474;BME280;8865;47.636;7.692;2024-01-07T04:15:43;97657.59;;;5.00;100.00
9474;BME280;8865;47.636;7.692;2024-01-07T04:18:09;97661.75;;;5.03;100.00
9474;BME280;8865;47.636;7.692;2024-01-07T04:20:35;97653.50;;;4.98;100.00
9474;BME280;8865;47.636;7.692;2024-01-07T04:23:02;97663.13;;;4.96;100.00
9474;BME280;8865;47.636;7.692;2024-01-07T04:25:28;97670.38;;;5.04;100.00
9474;BME280;8865;47.636;7.692;2024-01-07T04:27:54;97665.78;;;5.07;100.00
9474;BME280;8865;47.636;7.692;2024-01-07T04:30:20;97665.56;;;5.10;100.00
9474;BME280;8865;47.636;7.692;2024-01-07T04:32:46;97659.94;;;5.16;100.00
9474;BME280;8865;47.636;7.692;2024-01-07T04:35:12;97661.41;;;5.08;100.00
9474;BME280;8865;47.636;7.692;2024-01-07T04:37:38;97658.59;;;5.11;100.00
9474;BME280;8865;47.636;7.692;2024-01-07T04:40:04;97662.88;;;5.12;100.00
9474;BME280;8865;47.636;7.692;2024-01-07T04:42:31;97662.19;;;5.21;100.00
9474;BME280;8865;47.636;7.692;2024-01-07T04:44:57;97669.88;;;5.23;100.00
9474;BME280;8865;47.636;7.692;2024-01-07T04:47:28;97665.00;;;5.18;100.00
9474;BME280;8865;47.636;7.692;2024-01-07T04:49:54;97667.16;;;5.24;100.00
9474;BME280;8865;47.636;7.692;2024-01-07T04:52:24;97671.59;;;5.22;100.00
9474;BME280;8865;47.636;7.692;2024-01-07T04:54:51;97673.59;;;5.18;100.00
9474;BME280;8865;47.636;7.692;2024-01-07T04:57:18;97678.44;;;5.12;100.00
9474;BME280;8865;47.636;7.692;2024-01-07T04:59:45;97680.06;;;5.13;100.00
9474;BME280;8865;47.636;7.692;2024-01-07T05:02:11;97676.00;;;4.97;100.00
9474;BME280;8865;47.636;7.692;2024-01-07T05:04:37;97677.28;;;4.92;100.00
9474;BME280;8865;47.636;7.692;2024-01-07T05:07:03;97684.97;;;4.93;100.00
9474;BME280;8865;47.636;7.692;2024-01-07T05:09:30;97681.41;;;4.94;100.00
9474;BME280;8865;47.636;7.692;2024-01-07T05:11:56;97690.97;;;4.94;100.00
9474;BME280;8865;47.636;7.692;2024-01-07T05:14:22;97688.03;;;4.98;100.00
9474;BME280;8865;47.636;7.692;2024-01-07T05:16:49;97690.91;;;5.07;100.00
9474;BME280;8865;47.636;7.692;2024-01-07T05:19:15;97697.06;;;5.06;100.00
9474;BME280;8865;47.636;7.692;2024-01-07T05:21:41;97691.34;;;5.00;100.00
9474;BME280;8865;47.636;7.692;2024-01-07T05:24:07;97693.69;;;4.92;100.00
9474;BME280;8865;47.636;7.692;2024-01-07T05:26:41;97692.75;;;4.93;100.00
9474;BME280;8865;47.636;7.692;2024-01-07T05:29:07;97691.47;;;4.75;100.00
9474;BME280;8865;47.636;7.692;2024-01-07T05:31:33;97687.34;;;4.72;100.00
9474;BME280;8865;47.636;7.692;2024-01-07T05:33:59;97690.63;;;4.74;100.00
9474;BME280;8865;47.636;7.692;2024-01-07T05:36:25;97698.97;;;4.67;100.00
9474;BME280;8865;47.636;7.692;2024-01-07T05:38:51;97697.81;;;4.71;100.00
9474;BME280;8865;47.636;7.692;2024-01-07T05:41:17;97704.16;;;4.67;100.00
9474;BME280;8865;47.636;7.692;2024-01-07T05:43:44;97694.00;;;4.63;100.00
9474;BME280;8865;47.636;7.692;2024-01-07T05:46:10;97699.41;;;4.60;100.00
9474;BME280;8865;47.636;7.692;2024-01-07T05:48:44;97699.81;;;4.67;100.00
9474;BME280;8865;47.636;7.692;2024-01-07T05:51:12;97704.22;;;4.78;100.00
9474;BME280;8865;47.636;7.692;2024-01-07T05:53:39;97704.34;;;4.76;100.00
9474;BME280;8865;47.636;7.692;2024-01-07T05:56:06;97713.66;;;4.79;100.00
9474;BME280;8865;47.636;7.692;2024-01-07T05:58:32;97710.19;;;4.67;100.00
9474;BME280;8865;47.636;7.692;2024-01-07T06:00:59;97715.16;;;4.70;100.00
9474;BME280;8865;47.636;7.692;2024-01-07T06:03:26;97719.38;;;4.71;100.00
9474;BME280;8865;47.636;7.692;2024-01-07T06:05:52;97715.75;;;4.74;100.00
9474;BME280;8865;47.636;7.692;2024-01-07T06:08:18;97713.28;;;4.72;100.00
9474;BME280;8865;47.636;7.692;2024-01-07T06:10:44;97715.53;;;4.77;100.00
9474;BME280;8865;47.636;7.692;2024-01-07T06:13:10;97715.31;;;4.80;100.00
9474;BME280;8865;47.636;7.692;2024-01-07T06:15:36;97712.41;;;4.85;100.00
9474;BME280;8865;47.636;7.692;2024-01-07T06:18:03;97718.69;;;4.93;100.00
9474;BME280;8865;47.636;7.692;2024-01-07T06:20:29;97716.31;;;4.90;100.00
9474;BME280;8865;47.636;7.692;2024-01-07T06:22:55;97718.59;;;4.95;100.00
9474;BME280;8865;47.636;7.692;2024-01-07T06:25:21;97718.69;;;4.69;100.00
9474;BME280;8865;47.636;7.692;2024-01-07T06:27:47;97722.81;;;4.72;100.00
9474;BME280;8865;47.636;7.692;2024-01-07T06:30:13;97723.03;;;4.69;100.00
9474;BME280;8865;47.636;7.692;2024-01-07T06:32:39;97720.44;;;4.69;100.00
9474;BME280;8865;47.636;7.692;2024-01-07T06:35:06;97728.84;;;4.72;100.00
9474;BME280;8865;47.636;7.692;2024-01-07T06:37:32;97729.06;;;4.69;100.00
9474;BME280;8865;47.636;7.692;2024-01-07T06:39:58;97736.63;;;4.72;100.00
9474;BME280;8865;47.636;7.692;2024-01-07T06:42:24;97739.69;;;4.77;100.00
9474;BME280;8865;47.636;7.692;2024-01-07T06:44:50;97733.00;;;4.75;100.00
9474;BME280;8865;47.636;7.692;2024-01-07T06:47:17;97747.16;;;4.82;100.00
9474;BME280;8865;47.636;7.692;2024-01-07T06:49:43;97736.19;;;4.78;100.00
9474;BME280;8865;47.636;7.692;2024-01-07T06:52:09;97740.56;;;4.78;100.00
9474;BME280;8865;47.636;7.692;2024-01-07T06:54:35;97741.53;;;4.88;100.00
9474;BME280;8865;47.636;7.692;2024-01-07T06:57:01;97744.25;;;4.87;100.00
9474;BME280;8865;47.636;7.692;2024-01-07T06:59:27;97752.34;;;4.82;100.00
9474;BME280;8865;47.636;7.692;2024-01-07T07:01:53;97747.47;;;4.90;100.00
9474;BME280;8865;47.636;7.692;2024-01-07T07:04:21;97754.81;;;4.96;100.00
9474;BME280;8865;47.636;7.692;2024-01-07T07:06:47;97753.09;;;4.84;100.00
9474;BME280;8865;47.636;7.692;2024-01-07T07:09:13;97758.81;;;4.76;100.00
9474;BME280;8865;47.636;7.692;2024-01-07T07:11:41;97756.94;;;4.78;100.00
9474;BME280;8865;47.636;7.692;2024-01-07T07:14:07;97759.63;;;4.77;100.00
9474;BME280;8865;47.636;7.692;2024-01-07T07:16:33;97758.59;;;4.79;100.00
9474;BME280;8865;47.636;7.692;2024-01-07T07:18:59;97764.72;;;4.78;100.00
9474;BME280;8865;47.636;7.692;2024-01-07T07:21:25;97762.84;;;4.80;100.00
9474;BME280;8865;47.636;7.692;2024-01-07T07:23:53;97763.69;;;4.81;100.00
9474;BME280;8865;47.636;7.692;2024-01-07T07:26:19;97770.00;;;4.77;100.00
9474;BME280;8865;47.636;7.692;2024-01-07T07:28:46;97768.13;;;4.79;100.00
9474;BME280;8865;47.636;7.692;2024-01-07T07:31:12;97775.53;;;4.72;100.00
9474;BME280;8865;47.636;7.692;2024-01-07T07:33:39;97772.13;;;4.59;100.00
9474;BME280;8865;47.636;7.692;2024-01-07T07:36:06;97761.44;;;4.63;100.00
9474;BME280;8865;47.636;7.692;2024-01-07T07:38:32;97767.03;;;4.70;100.00
9474;BME280;8865;47.636;7.692;2024-01-07T07:40:59;97778.63;;;4.77;100.00
9474;BME280;8865;47.636;7.692;2024-01-07T07:43:26;97776.66;;;4.68;100.00
9474;BME280;8865;47.636;7.692;2024-01-07T07:45:52;97785.09;;;4.72;100.00
9474;BME280;8865;47.636;7.692;2024-01-07T07:48:19;97791.59;;;4.77;100.00
9474;BME280;8865;47.636;7.692;2024-01-07T07:50:45;97789.75;;;4.67;100.00
9474;BME280;8865;47.636;7.692;2024-01-07T07:53:11;97787.69;;;4.72;100.00
9474;BME280;8865;47.636;7.692;2024-01-07T07:55:37;97783.03;;;4.64;100.00
9474;BME280;8865;47.636;7.692;2024-01-07T07:58:04;97797.09;;;4.73;100.00
9474;BME280;8865;47.636;7.692;2024-01-07T08:00:30;97798.06;;;4.72;100.00
9474;BME280;8865;47.636;7.692;2024-01-07T08:02:56;97796.66;;;4.79;100.00
9474;BME280;8865;47.636;7.692;2024-01-07T08:05:22;97794.59;;;4.84;100.00
9474;BME280;8865;47.636;7.692;2024-01-07T08:07:48;97796.88;;;4.89;100.00
9474;BME280;8865;47.636;7.692;2024-01-07T08:10:14;97795.38;;;4.97;100.00
9474;BME280;8865;47.636;7.692;2024-01-07T08:12:40;97798.19;;;4.94;100.00
9474;BME280;8865;47.636;7.692;2024-01-07T08:15:06;97792.56;;;5.00;100.00
9474;BME280;8865;47.636;7.692;2024-01-07T08:17:33;97798.19;;;4.94;100.00
9474;BME280;8865;47.636;7.692;2024-01-07T08:19:59;97796.81;;;5.01;100.00
9474;BME280;8865;47.636;7.692;2024-01-07T08:22:27;97798.88;;;5.09;100.00
9474;BME280;8865;47.636;7.692;2024-01-07T08:24:53;97803.09;;;5.23;100.00
9474;BME280;8865;47.636;7.692;2024-01-07T08:27:19;97804.09;;;5.33;100.00
9474;BME280;8865;47.636;7.692;2024-01-07T08:29:45;97802.50;;;5.44;100.00
9474;BME280;8865;47.636;7.692;2024-01-07T08:32:12;97805.13;;;5.55;100.00
9474;BME280;8865;47.636;7.692;2024-01-07T08:34:38;97794.19;;;5.63;100.00
9474;BME280;8865;47.636;7.692;2024-01-07T08:37:07;97802.91;;;5.62;100.00
9474;BME280;8865;47.636;7.692;2024-01-07T08:39:33;97804.72;;;5.72;100.00
9474;BME280;8865;47.636;7.692;2024-01-07T08:41:59;97808.53;;;5.80;100.00
9474;BME280;8865;47.636;7.692;2024-01-07T08:44:25;97807.25;;;5.85;100.00
9474;BME280;8865;47.636;7.692;2024-01-07T08:46:51;97809.47;;;5.79;100.00
9474;BME280;8865;47.636;7.692;2024-01-07T08:49:17;97810.44;;;5.89;100.00
9474;BME280;8865;47.636;7.692;2024-01-07T08:51:43;97809.16;;;5.95;100.00
9474;BME280;8865;47.636;7.692;2024-01-07T08:54:09;97810.59;;;5.99;100.00
9474;BME280;8865;47.636;7.692;2024-01-07T08:56:35;97805.78;;;6.05;100.00
9474;BME280;8865;47.636;7.692;2024-01-07T08:59:01;97811.94;;;6.16;100.00
9474;BME280;8865;47.636;7.692;2024-01-07T09:01:27;97804.28;;;6.25;100.00
9474;BME280;8865;47.636;7.692;2024-01-07T09:03:53;97814.34;;;6.30;100.00
9474;BME280;8865;47.636;7.692;2024-01-07T09:06:19;97806.78;;;6.38;100.00
9474;BME280;8865;47.636;7.692;2024-01-07T09:08:45;97808.78;;;6.35;100.00
9474;BME280;8865;47.636;7.692;2024-01-07T09:11:11;97815.19;;;6.42;100.00
9474;BME280;8865;47.636;7.692;2024-01-07T09:13:39;97812.25;;;6.47;100.00
9474;BME280;8865;47.636;7.692;2024-01-07T09:16:05;97820.03;;;6.47;100.00
9474;BME280;8865;47.636;7.692;2024-01-07T09:18:31;97822.78;;;6.45;100.00
9474;BME280;8865;47.636;7.692;2024-01-07T09:20:57;97825.72;;;6.52;100.00
9474;BME280;8865;47.636;7.692;2024-01-07T09:23:23;97826.66;;;6.39;100.00
9474;BME280;8865;47.636;7.692;2024-01-07T09:25:49;97823.81;;;6.42;100.00
9474;BME280;8865;47.636;7.692;2024-01-07T09:28:15;97829.41;;;6.60;100.00
9474;BME280;8865;47.636;7.692;2024-01-07T09:30:41;97833.03;;;6.69;100.00
9474;BME280;8865;47.636;7.692;2024-01-07T09:33:07;97827.38;;;6.75;100.00
9474;BME280;8865;47.636;7.692;2024-01-07T09:35:33;97838.75;;;6.74;100.00
9474;BME280;8865;47.636;7.692;2024-01-07T09:38:00;97843.34;;;6.82;100.00
9474;BME280;8865;47.636;7.692;2024-01-07T09:40:26;97838.03;;;6.84;100.00
9474;BME280;8865;47.636;7.692;2024-01-07T09:42:52;97847.94;;;6.78;100.00
9474;BME280;8865;47.636;7.692;2024-01-07T09:45:18;97838.97;;;6.83;100.00
9474;BME280;8865;47.636;7.692;2024-01-07T09:47:45;97838.03;;;6.84;100.00
9474;BME280;8865;47.636;7.692;2024-01-07T09:50:11;97838.84;;;6.84;100.00
9474;BME280;8865;47.636;7.692;2024-01-07T09:52:43;97843.25;;;6.84;100.00
9474;BME280;8865;47.636;7.692;2024-01-07T09:55:12;97838.13;;;6.71;100.00
9474;BME280;8865;47.636;7.692;2024-01-07T09:57:45;97842.88;;;6.66;100.00
9474;BME280;8865;47.636;7.692;2024-01-07T10:00:13;97841.09;;;6.66;100.00
9474;BME280;8865;47.636;7.692;2024-01-07T10:02:39;97842.63;;;6.69;100.00
9474;BME280;8865;47.636;7.692;2024-01-07T10:05:07;97843.69;;;6.66;100.00
9474;BME280;8865;47.636;7.692;2024-01-07T10:07:33;97847.84;;;6.69;100.00
9474;BME280;8865;47.636;7.692;2024-01-07T10:10:18;97840.72;;;6.71;100.00
9474;BME280;8865;47.636;7.692;2024-01-07T10:12:45;97849.38;;;6.71;100.00
9474;BME280;8865;47.636;7.692;2024-01-07T10:15:13;97846.66;;;6.73;100.00
9474;BME280;8865;47.636;7.692;2024-01-07T10:17:41;97845.34;;;6.78;100.00
9474;BME280;8865;47.636;7.692;2024-01-07T10:20:08;97844.16;;;6.83;100.00
9474;BME280;8865;47.636;7.692;2024-01-07T10:22:39;97845.34;;;6.78;100.00
9474;BME280;8865;47.636;7.692;2024-01-07T10:25:05;97841.81;;;6.79;100.00
9474;BME280;8865;47.636;7.692;2024-01-07T10:27:36;97842.38;;;6.83;100.00
9474;BME280;8865;47.636;7.692;2024-01-07T10:30:03;97843.31;;;7.05;100.00
9474;BME280;8865;47.636;7.692;2024-01-07T10:32:29;97834.53;;;7.28;100.00
9474;BME280;8865;47.636;7.692;2024-01-07T10:35:02;97842.88;;;7.55;100.00
9474;BME280;8865;47.636;7.692;2024-01-07T10:37:29;97835.59;;;7.69;100.00
9474;BME280;8865;47.636;7.692;2024-01-07T10:39:58;97830.09;;;7.51;100.00
9474;BME280;8865;47.636;7.692;2024-01-07T10:42:33;97832.19;;;7.90;100.00
9474;BME280;8865;47.636;7.692;2024-01-07T10:45:00;97823.53;;;8.11;100.00
9474;BME280;8865;47.636;7.692;2024-01-07T10:47:34;97820.91;;;8.32;100.00
9474;BME280;8865;47.636;7.692;2024-01-07T10:50:02;97820.66;;;8.35;100.00
9474;BME280;8865;47.636;7.692;2024-01-07T10:52:29;97817.53;;;8.41;100.00
9474;BME280;8865;47.636;7.692;2024-01-07T10:54:56;97819.16;;;8.11;100.00
9474;BME280;8865;47.636;7.692;2024-01-07T10:57:42;97819.84;;;8.13;100.00
9474;BME280;8865;47.636;7.692;2024-01-07T11:00:10;97813.19;;;8.20;100.00
9474;BME280;8865;47.636;7.692;2024-01-07T11:02:55;97816.38;;;8.34;100.00
9474;BME280;8865;47.636;7.692;2024-01-07T11:05:29;97814.31;;;8.28;100.00
9474;BME280;8865;47.636;7.692;2024-01-07T11:08:03;97815.84;;;8.30;100.00
9474;BME280;8865;47.636;7.692;2024-01-07T11:10:37;97808.69;;;8.32;100.00
9474;BME280;8865;47.636;7.692;2024-01-07T11:13:04;97814.13;;;8.40;100.00
9474;BME280;8865;47.636;7.692;2024-01-07T11:18:21;97802.75;;;8.72;100.00
9474;BME280;8865;47.636;7.692;2024-01-07T11:20:49;97791.13;;;8.86;100.00
9474;BME280;8865;47.636;7.692;2024-01-07T11:25:56;97799.13;;;9.04;100.00
9474;BME280;8865;47.636;7.692;2024-01-07T11:28:42;97798.25;;;8.84;100.00
9474;BME280;8865;47.636;7.692;2024-01-07T11:31:09;97798.34;;;8.73;100.00
9474;BME280;8865;47.636;7.692;2024-01-07T11:33:37;97794.88;;;8.63;100.00
9474;BME280;8865;47.636;7.692;2024-01-07T11:36:06;97793.31;;;8.50;100.00
9474;BME280;8865;47.636;7.692;2024-01-07T11:38:36;97797.41;;;8.22;100.00
9474;BME280;8865;47.636;7.692;2024-01-07T11:41:06;97794.72;;;8.12;100.00
9474;BME280;8865;47.636;7.692;2024-01-07T11:43:33;97799.19;;;8.00;100.00
9474;BME280;8865;47.636;7.692;2024-01-07T11:46:00;97796.69;;;7.78;100.00
9474;BME280;8865;47.636;7.692;2024-01-07T11:48:26;97798.47;;;7.77;100.00
9474;BME280;8865;47.636;7.692;2024-01-07T11:50:53;97793.91;;;7.69;100.00
9474;BME280;8865;47.636;7.692;2024-01-07T11:53:20;97799.13;;;7.58;100.00
9474;BME280;8865;47.636;7.692;2024-01-07T11:55:46;97797.41;;;7.47;100.00
9474;BME280;8865;47.636;7.692;2024-01-07T11:58:12;97799.13;;;7.58;100.00
9474;BME280;8865;47.636;7.692;2024-01-07T12:00:39;97791.91;;;7.62;100.00
9474;BME280;8865;47.636;7.692;2024-01-07T12:03:05;97790.94;;;7.63;100.00
9474;BME280;8865;47.636;7.692;2024-01-07T12:05:31;97794.47;;;7.73;100.00
9474;BME280;8865;47.636;7.692;2024-01-07T12:07:58;97793.84;;;7.81;100.00
9474;BME280;8865;47.636;7.692;2024-01-07T12:10:25;97794.47;;;7.94;100.00
9474;BME280;8865;47.636;7.692;2024-01-07T12:12:52;97796.88;;;7.65;100.00
9474;BME280;8865;47.636;7.692;2024-01-07T12:15:20;97800.97;;;7.79;100.00
9474;BME280;8865;47.636;7.692;2024-01-07T12:17:57;97804.03;;;7.51;100.00
9474;BME280;8865;47.636;7.692;2024-01-07T12:20:26;97804.19;;;7.39;100.00
9474;BME280;8865;47.636;7.692;2024-01-07T12:22:52;97804.78;;;7.42;100.00
9474;BME280;8865;47.636;7.692;2024-01-07T12:25:23;97806.94;;;7.26;100.00
9474;BME280;8865;47.636;7.692;2024-01-07T12:27:52;97800.75;;;7.38;100.00
9474;BME280;8865;47.636;7.692;2024-01-07T12:30:19;97812.22;;;7.36;100.00
9474;BME280;8865;47.636;7.692;2024-01-07T12:32:46;97803.31;;;7.06;100.00
9474;BME280;8865;47.636;7.692;2024-01-07T12:35:12;97807.56;;;7.18;100.00
9474;BME280;8865;47.636;7.692;2024-01-07T12:37:39;97803.16;;;7.19;100.00
9474;BME280;8865;47.636;7.692;2024-01-07T12:40:05;97803.41;;;7.15;100.00
9474;BME280;8865;47.636;7.692;2024-01-07T12:42:34;97807.06;;;7.24;100.00
9474;BME280;8865;47.636;7.692;2024-01-07T12:45:00;97799.59;;;7.31;100.00
9474;BME280;8865;47.636;7.692;2024-01-07T12:47:27;97804.22;;;7.27;100.00
9474;BME280;8865;47.636;7.692;2024-01-07T12:49:53;97803.44;;;7.04;100.00
9474;BME280;8865;47.636;7.692;2024-01-07T12:52:19;97801.78;;;7.03;100.00
9474;BME280;8865;47.636;7.692;2024-01-07T12:54:45;97802.41;;;6.84;100.00
9474;BME280;8865;47.636;7.692;2024-01-07T12:57:12;97805.00;;;7.07;100.00
9474;BME280;8865;47.636;7.692;2024-01-07T12:59:38;97804.34;;;7.26;100.00
9474;BME280;8865;47.636;7.692;2024-01-07T13:02:04;97809.69;;;7.24;100.00
9474;BME280;8865;47.636;7.692;2024-01-07T13:04:31;97807.16;;;7.34;100.00
9474;BME280;8865;47.636;7.692;2024-01-07T13:06:57;97802.53;;;7.38;100.00
9474;BME280;8865;47.636;7.692;2024-01-07T13:09:23;97813.22;;;7.35;100.00
9474;BME280;8865;47.636;7.692;2024-01-07T13:11:49;97805.84;;;7.40;100.00
9474;BME280;8865;47.636;7.692;2024-01-07T13:14:15;97813.34;;;7.33;100.00
9474;BME280;8865;47.636;7.692;2024-01-07T13:16:41;97814.03;;;7.35;100.00
9474;BME280;8865;47.636;7.692;2024-01-07T13:19:07;97805.75;;;7.30;100.00
9474;BME280;8865;47.636;7.692;2024-01-07T13:21:38;97824.97;;;7.18;100.00
9474;BME280;8865;47.636;7.692;2024-01-07T13:24:04;97818.53;;;7.33;100.00
9474;BME280;8865;47.636;7.692;2024-01-07T13:26:30;97815.88;;;7.01;100.00